Midway, New Mexico
Current Conditions -  °F | °C
As of 2:51 AM on Sunday 23 Nov 2014 (Local Time) from KROW Reporting Station
Clear Clear  
Wind Chill: 42°   Ceiling: Unl
Heat Index: 42°   Visibility: 10mi
Dew Point: 24°   Wind: 3mph
Humidity: 49%   Direction: 320°NW
Pressure: 29.67"   Gusts: NA
Location:  33.2058°N, 104.522°W
Report Text: KROW 230951Z AUTO 32003KT 10SM CLR 06/M04 A2967 RMK AO2 SLP009 T00561044
Loading
Personal Weather Stations






























Interactive Weather Map New forecast layout! Learn more

10-Day Weather Forecast

Advertisements
Track Severe Weather on mobile